Terminal Aerodrome Forecast
Issued by NWS

Home | Current Version | Previous Version | Text Only | Print | Product List | Glossary On
Versions: 1 2 3 4 5 6 7 8 9 10 11 12 13 14 15 16 17 18
435
FTUS41 KBGM 172322
TAFITH
TAF
KITH 172322Z 1800/1824 19006KT P6SM SKC WS020/26030KT
     FM180900 18003KT P6SM SKC
     FM181400 22006KT P6SM SKC=

USA.gov is the U.S. government's official web portal to all federal, state and local government web resources and services.